Time;durP1;ratioP1;P1;durP2;ratioP2;P2;SDS_P1;SDS_P2;PMS_P1;PMS_P2;Temp;Humidity;BMP_temperature;BMP_pressure;BME280_temperature;BME280_humidity;BME280_pressure;Samples;Min_cycle;Max_cycle;Signal;HPM_P1;HPM_P2
2021/12/06 00:00:18;;;;;;;4.75;4.35;;;15.70;99.90;;;;;;4232913;28;20217;-87
2021/12/06 00:02:25;;;;;;;4.70;4.20;;;15.70;99.90;;;;;;4233074;28;20246;-87
2021/12/06 00:04:30;;;;;;;5.13;4.53;;;15.70;99.90;;;;;;4233809;28;20194;-87
2021/12/06 00:06:35;;;;;;;5.18;4.47;;;15.70;99.90;;;;;;4233257;28;20688;-87
2021/12/06 00:08:37;;;;;;;4.70;4.25;;;15.70;99.90;;;;;;4233179;28;20612;-87
2021/12/06 00:10:40;;;;;;;5.45;4.38;;;15.70;99.90;;;;;;4232695;28;20213;-87
2021/12/06 00:12:43;;;;;;;4.28;3.88;;;15.70;99.90;;;;;;4233594;28;20383;-87
2021/12/06 00:14:47;;;;;;;5.90;4.27;;;15.70;99.90;;;;;;4232981;28;20217;-87
2021/12/06 00:16:50;;;;;;;5.25;4.45;;;15.70;99.90;;;;;;4233713;28;20198;-87
2021/12/06 00:18:53;;;;;;;5.18;4.25;;;15.70;99.90;;;;;;4232549;28;20214;-87
2021/12/06 00:20:56;;;;;;;4.93;4.07;;;15.70;99.90;;;;;;4233177;28;20235;-87
2021/12/06 00:22:58;;;;;;;5.20;4.70;;;15.70;99.90;;;;;;4232799;28;20623;-87
2021/12/06 00:25:01;;;;;;;5.00;4.50;;;15.70;99.90;;;;;;4232778;28;20221;-87
2021/12/06 00:27:03;;;;;;;5.55;4.47;;;15.70;99.90;;;;;;4232696;28;20248;-88
2021/12/06 00:29:06;;;;;;;4.97;4.47;;;15.70;99.90;;;;;;4232794;28;20220;-87
2021/12/06 00:31:10;;;;;;;4.63;4.20;;;15.70;99.90;;;;;;4232528;28;20221;-87
2021/12/06 00:33:13;;;;;;;5.68;4.43;;;15.70;99.90;;;;;;4233051;28;20233;-87
2021/12/06 00:35:21;;;;;;;5.38;4.88;;;15.60;99.90;;;;;;4226277;27;20214;-87
2021/12/06 00:37:30;;;;;;;4.90;4.38;;;15.70;99.90;;;;;;4220737;28;20259;-87
2021/12/06 00:39:33;;;;;;;4.53;4.13;;;15.70;99.90;;;;;;4215890;28;20245;-87
2021/12/06 00:41:36;;;;;;;4.95;4.45;;;15.70;99.90;;;;;;4215462;28;20263;-88
2021/12/06 00:43:39;;;;;;;6.50;4.63;;;15.60;99.90;;;;;;4215431;28;20218;-87
2021/12/06 00:45:42;;;;;;;5.68;4.60;;;15.60;99.90;;;;;;4215442;28;20267;-88
2021/12/06 00:47:46;;;;;;;4.63;4.20;;;15.60;99.90;;;;;;4215430;28;20230;-87
2021/12/06 00:49:50;;;;;;;4.60;4.20;;;15.60;99.90;;;;;;4215346;28;20255;-87
2021/12/06 00:51:52;;;;;;;4.90;4.35;;;15.60;99.90;;;;;;4214937;28;20219;-87
2021/12/06 00:53:55;;;;;;;5.38;4.88;;;15.60;99.90;;;;;;4215552;28;20647;-87
2021/12/06 00:55:58;;;;;;;5.03;4.38;;;15.60;99.90;;;;;;4215457;28;20624;-88
2021/12/06 00:58:00;;;;;;;5.05;4.50;;;15.60;99.90;;;;;;4215334;28;20260;-87
2021/12/06 01:00:04;;;;;;;5.30;4.75;;;15.60;99.90;;;;;;4216026;28;20612;-87
2021/12/06 01:02:09;;;;;;;4.50;4.07;;;15.60;99.90;;;;;;4215449;28;20210;-87
2021/12/06 01:04:15;;;;;;;4.53;4.00;;;15.60;99.90;;;;;;4215884;28;20198;-88
2021/12/06 01:06:17;;;;;;;5.10;4.60;;;15.60;99.90;;;;;;4215402;28;20191;-88
2021/12/06 01:08:20;;;;;;;5.18;4.47;;;15.60;99.90;;;;;;4214883;28;20242;-87
2021/12/06 01:10:25;;;;;;;4.95;4.38;;;15.60;99.90;;;;;;4214927;28;20203;-87
2021/12/06 01:12:27;;;;;;;5.00;4.50;;;15.60;99.90;;;;;;4215238;28;20206;-87
2021/12/06 01:14:30;;;;;;;5.45;4.57;;;15.60;99.90;;;;;;4215456;28;20288;-87
2021/12/06 01:16:32;;;;;;;5.03;4.15;;;15.60;99.90;;;;;;4215185;28;20215;-87
2021/12/06 01:18:35;;;;;;;5.38;4.20;;;15.60;99.90;;;;;;4215278;28;20202;-87
2021/12/06 01:20:47;;;;;;;4.80;4.30;;;15.60;99.90;;;;;;4215229;28;20601;-87
2021/12/06 01:22:55;;;;;;;4.90;4.40;;;15.60;99.90;;;;;;4215117;28;20586;-88
2021/12/06 01:25:01;;;;;;;4.50;4.10;;;15.60;99.90;;;;;;4215196;28;20267;-88
2021/12/06 01:27:15;;;;;;;5.00;4.50;;;15.60;99.90;;;;;;4215088;28;20211;-87
2021/12/06 01:31:46;;;;;;;4.88;4.38;;;15.60;99.90;;;;;;4214238;28;20210;-88
2021/12/06 01:40:46;;;;;;;4.63;4.18;;;15.50;99.90;;;;;;4232043;28;20661;-87
2021/12/06 01:42:49;;;;;;;4.50;4.10;;;15.50;99.90;;;;;;4231841;28;20250;-87
2021/12/06 01:44:53;;;;;;;4.85;4.28;;;15.50;99.90;;;;;;4232975;28;20270;-87
2021/12/06 01:46:58;;;;;;;4.68;4.28;;;15.50;99.90;;;;;;4231629;28;20282;-87
2021/12/06 01:49:01;;;;;;;4.70;4.03;;;15.50;99.90;;;;;;4231381;28;20226;-87
2021/12/06 01:51:03;;;;;;;5.57;4.22;;;15.50;99.90;;;;;;4231790;28;20243;-87
2021/12/06 01:53:08;;;;;;;4.95;4.45;;;15.50;99.90;;;;;;4231003;28;20242;-88
2021/12/06 01:55:15;;;;;;;5.72;4.05;;;15.50;99.90;;;;;;4231666;28;20305;-87
2021/12/06 01:57:18;;;;;;;4.43;4.03;;;15.50;99.90;;;;;;4232221;28;20247;-87
2021/12/06 01:59:22;;;;;;;4.77;4.20;;;15.60;99.90;;;;;;4231690;28;20206;-87
2021/12/06 02:01:25;;;;;;;4.43;4.03;;;15.50;99.90;;;;;;4231594;28;20255;-87
2021/12/06 02:03:27;;;;;;;5.75;4.32;;;15.50;99.90;;;;;;4231910;28;20193;-87
2021/12/06 02:05:30;;;;;;;4.53;4.13;;;15.50;99.90;;;;;;4231212;28;20730;-88
2021/12/06 02:07:33;;;;;;;5.13;4.22;;;15.50;99.90;;;;;;4232024;28;20198;-88
2021/12/06 02:09:37;;;;;;;6.20;4.03;;;15.50;99.90;;;;;;4231580;28;20239;-87
2021/12/06 02:11:39;;;;;;;5.13;4.60;;;15.50;99.90;;;;;;4232186;28;20207;-88
2021/12/06 02:13:49;;;;;;;5.60;4.63;;;15.50;99.90;;;;;;4230905;28;20213;-88
2021/12/06 02:15:54;;;;;;;4.00;3.60;;;15.50;99.90;;;;;;4231605;28;20263;-88
2021/12/06 02:18:04;;;;;;;5.28;4.50;;;15.50;99.90;;;;;;4231401;28;20231;-87
2021/12/06 02:20:10;;;;;;;4.35;3.95;;;15.50;99.90;;;;;;4231462;28;20214;-88
2021/12/06 02:22:17;;;;;;;5.15;4.28;;;15.50;99.90;;;;;;4231743;28;20615;-87
2021/12/06 02:24:20;;;;;;;4.78;4.28;;;15.50;99.90;;;;;;4226280;28;20225;-87
2021/12/06 02:26:23;;;;;;;4.82;4.38;;;15.50;99.90;;;;;;4232946;28;20205;-88
2021/12/06 02:28:26;;;;;;;4.90;4.50;;;15.50;99.90;;;;;;4234588;28;20272;-88
2021/12/06 02:30:28;;;;;;;5.07;4.20;;;15.50;99.90;;;;;;4234510;28;20671;-88
2021/12/06 02:32:31;;;;;;;4.78;4.20;;;15.50;99.90;;;;;;4235425;28;20190;-88
2021/12/06 02:34:34;;;;;;;4.88;4.30;;;15.50;99.90;;;;;;4234397;28;20206;-88
2021/12/06 02:36:36;;;;;;;4.78;4.28;;;15.50;99.90;;;;;;4234969;28;20615;-88
2021/12/06 02:38:40;;;;;;;4.55;3.85;;;15.50;99.90;;;;;;4235292;28;20182;-88
2021/12/06 02:40:43;;;;;;;4.95;4.45;;;15.50;99.90;;;;;;4234230;28;20290;-88
2021/12/06 02:42:46;;;;;;;4.68;4.13;;;15.50;99.90;;;;;;4234187;28;20214;-88
2021/12/06 02:44:49;;;;;;;4.68;4.22;;;15.50;99.90;;;;;;4234318;28;20266;-88
2021/12/06 02:46:52;;;;;;;5.13;4.27;;;15.40;99.90;;;;;;4234119;28;20214;-88
2021/12/06 02:48:54;;;;;;;5.25;4.25;;;15.50;99.90;;;;;;4234497;28;20218;-88
2021/12/06 02:51:00;;;;;;;4.53;4.03;;;15.40;99.90;;;;;;4235088;28;20206;-88
2021/12/06 02:53:03;;;;;;;4.93;4.43;;;15.40;99.90;;;;;;4233842;28;20217;-88
2021/12/06 02:55:24;;;;;;;4.40;4.00;;;15.50;99.90;;;;;;4234672;28;20969;-88
2021/12/06 02:57:35;;;;;;;4.43;4.03;;;15.40;99.90;;;;;;4234104;28;20218;-88
2021/12/06 02:59:38;;;;;;;4.47;3.97;;;15.50;99.90;;;;;;4234396;28;20190;-88
2021/12/06 03:01:43;;;;;;;4.55;4.10;;;15.40;99.90;;;;;;4233426;28;20218;-88
2021/12/06 03:03:46;;;;;;;4.60;4.20;;;15.40;99.90;;;;;;4233172;28;20217;-88
2021/12/06 03:05:50;;;;;;;4.47;3.80;;;15.40;99.90;;;;;;4233311;28;20728;-88
2021/12/06 03:07:58;;;;;;;4.43;4.03;;;15.40;99.90;;;;;;4233590;28;20217;-88
2021/12/06 03:10:00;;;;;;;5.57;4.73;;;15.40;99.90;;;;;;4234100;28;20213;-88
2021/12/06 03:12:08;;;;;;;4.43;4.03;;;15.40;99.90;;;;;;4234691;28;20523;-87
2021/12/06 03:14:13;;;;;;;5.22;4.32;;;15.40;99.90;;;;;;4233911;28;20210;-87
2021/12/06 03:16:16;;;;;;;4.75;4.25;;;15.40;99.90;;;;;;4234457;28;20657;-87
2021/12/06 03:18:18;;;;;;;4.43;4.03;;;15.40;99.90;;;;;;4234319;28;20198;-88
2021/12/06 03:20:21;;;;;;;4.15;3.70;;;15.40;99.90;;;;;;4233787;28;20243;-88
2021/12/06 03:22:25;;;;;;;4.90;4.22;;;15.40;99.90;;;;;;4233847;28;20214;-88
2021/12/06 03:24:27;;;;;;;4.60;4.15;;;15.40;99.90;;;;;;4233357;28;20218;-87
2021/12/06 03:26:31;;;;;;;4.40;4.00;;;15.40;99.90;;;;;;4233762;28;20206;-88
2021/12/06 03:28:37;;;;;;;4.40;4.00;;;15.40;99.90;;;;;;4233612;28;20206;-88
2021/12/06 03:30:40;;;;;;;4.85;4.35;;;15.40;99.90;;;;;;4233495;28;20209;-88
2021/12/06 03:32:42;;;;;;;4.68;4.13;;;15.40;99.90;;;;;;4234149;28;20619;-88
2021/12/06 03:34:45;;;;;;;4.90;4.40;;;15.40;99.90;;;;;;4233251;28;20616;-88
2021/12/06 03:36:48;;;;;;;4.32;3.92;;;15.40;99.90;;;;;;4234550;28;20258;-88
2021/12/06 03:38:53;;;;;;;4.93;4.43;;;15.40;99.90;;;;;;4233461;28;20982;-87
2021/12/06 03:40:55;;;;;;;4.57;4.18;;;15.40;99.90;;;;;;4233089;28;20279;-88
2021/12/06 03:42:58;;;;;;;4.80;4.03;;;15.30;99.90;;;;;;4233530;28;20719;-87
2021/12/06 03:45:02;;;;;;;5.35;4.30;;;15.40;99.90;;;;;;4233488;28;20271;-88
2021/12/06 03:47:08;;;;;;;4.38;3.97;;;15.40;99.90;;;;;;4233441;28;20235;-87
2021/12/06 03:49:13;;;;;;;5.07;4.20;;;15.40;99.90;;;;;;4236418;27;20632;-87
2021/12/06 03:51:21;;;;;;;4.85;4.32;;;15.40;99.90;;;;;;4236553;28;20225;-87
2021/12/06 03:53:24;;;;;;;4.90;4.33;;;15.40;99.90;;;;;;4239824;28;20262;-88
2021/12/06 03:55:35;;;;;;;5.63;4.27;;;15.30;99.90;;;;;;4239859;28;20214;-88
2021/12/06 03:57:44;;;;;;;4.87;4.47;;;15.40;99.90;;;;;;4240426;28;20182;-88
2021/12/06 03:59:48;;;;;;;4.80;4.30;;;15.30;99.90;;;;;;4239705;28;20209;-88
2021/12/06 04:01:56;;;;;;;5.03;4.53;;;15.30;99.90;;;;;;4240026;28;20205;-88
2021/12/06 04:04:16;;;;;;;4.50;3.93;;;15.30;99.90;;;;;;4239995;28;20209;-88
2021/12/06 04:06:19;;;;;;;5.17;4.40;;;15.30;99.90;;;;;;4239705;28;20611;-87
2021/12/06 04:08:25;;;;;;;4.90;4.50;;;15.40;99.90;;;;;;4239667;28;20190;-88
2021/12/06 04:10:27;;;;;;;5.00;4.40;;;15.30;99.90;;;;;;4239370;28;20249;-88
2021/12/06 04:12:39;;;;;;;4.83;4.33;;;15.30;99.90;;;;;;4240121;28;20643;-88
2021/12/06 04:14:49;;;;;;;4.80;4.20;;;15.30;99.90;;;;;;4239085;28;20205;-88
2021/12/06 04:16:57;;;;;;;6.87;4.47;;;15.30;99.90;;;;;;4238745;28;20654;-88
2021/12/06 04:19:01;;;;;;;6.75;4.60;;;15.30;99.90;;;;;;4238972;28;20227;-88
2021/12/06 04:21:24;;;;;;;5.33;4.73;;;15.30;99.90;;;;;;4239463;28;20235;-88
2021/12/06 04:23:27;;;;;;;5.30;4.80;;;15.30;99.90;;;;;;4239496;28;20271;-88
2021/12/06 04:25:30;;;;;;;4.80;4.40;;;15.30;99.90;;;;;;4239405;28;20206;-88
2021/12/06 04:27:40;;;;;;;5.05;4.45;;;15.30;99.90;;;;;;4239551;28;20211;-88
2021/12/06 04:29:49;;;;;;;5.57;5.07;;;15.30;99.90;;;;;;4239503;28;20290;-88
2021/12/06 04:31:57;;;;;;;5.23;4.73;;;15.30;99.90;;;;;;4239121;28;20218;-88
2021/12/06 04:34:03;;;;;;;5.60;4.93;;;15.30;99.90;;;;;;4239086;28;20227;-88
2021/12/06 04:36:18;;;;;;;5.27;4.77;;;15.30;99.90;;;;;;4239312;28;20638;-88
2021/12/06 04:38:26;;;;;;;5.90;5.17;;;15.20;99.90;;;;;;4239780;28;20218;-88
2021/12/06 04:40:41;;;;;;;;;;;;;;;;;;;;;
2021/12/06 04:42:56;;;;;;;6.53;5.30;;;15.30;99.90;;;;;;4239533;28;20206;-88
2021/12/06 04:44:59;;;;;;;5.60;5.00;;;15.20;99.90;;;;;;4238333;28;20201;-88
2021/12/06 04:47:15;;;;;;;6.17;5.03;;;15.20;99.90;;;;;;4239749;28;20227;-88
2021/12/06 04:49:25;;;;;;;5.47;4.97;;;15.20;99.90;;;;;;4239322;28;20206;-88
2021/12/06 04:51:28;;;;;;;5.83;5.20;;;15.20;99.90;;;;;;4238830;28;20239;-88
2021/12/06 04:53:47;;;;;;;5.15;4.72;;;15.20;99.90;;;;;;4238481;28;20709;-87
2021/12/06 04:55:53;;;;;;;5.80;5.30;;;15.20;99.90;;;;;;4238837;28;20210;-88
2021/12/06 04:57:56;;;;;;;5.72;5.20;;;15.20;99.90;;;;;;4239017;28;20190;-88
2021/12/06 05:00:01;;;;;;;6.03;5.43;;;15.20;99.90;;;;;;4239099;28;20202;-88
2021/12/06 05:02:23;;;;;;;6.53;5.53;;;15.20;99.90;;;;;;4238352;28;20619;-88
2021/12/06 05:04:35;;;;;;;5.90;5.30;;;15.20;99.90;;;;;;4238900;28;20267;-88
2021/12/06 05:06:45;;;;;;;6.10;5.40;;;15.20;99.90;;;;;;4238708;28;20182;-88
2021/12/06 05:08:53;;;;;;;5.78;5.07;;;15.20;99.90;;;;;;4238844;28;20205;-87
2021/12/06 05:10:59;;;;;;;7.40;5.80;;;15.20;99.90;;;;;;4238087;28;20229;-88
2021/12/06 05:13:04;;;;;;;5.70;5.20;;;15.20;99.90;;;;;;4238892;28;20630;-88
2021/12/06 05:15:08;;;;;;;6.07;5.57;;;15.20;99.90;;;;;;4239015;28;20198;-87
2021/12/06 05:17:14;;;;;;;6.53;5.93;;;15.20;99.90;;;;;;4238238;28;20217;-88
2021/12/06 05:19:26;;;;;;;5.90;5.30;;;15.20;99.90;;;;;;4238450;28;20217;-88
2021/12/06 05:21:30;;;;;;;5.63;5.13;;;15.20;99.90;;;;;;4238332;28;20645;-87
2021/12/06 05:23:40;;;;;;;6.43;5.83;;;15.10;99.90;;;;;;4238394;28;20209;-88
2021/12/06 05:25:44;;;;;;;6.95;5.70;;;15.10;99.90;;;;;;4237831;28;20614;-88
2021/12/06 05:28:06;;;;;;;6.87;6.17;;;15.20;99.90;;;;;;4238556;28;20235;-88
2021/12/06 05:30:13;;;;;;;7.67;6.10;;;15.20;99.90;;;;;;4238551;28;20238;-88
2021/12/06 05:32:20;;;;;;;6.10;5.50;;;15.20;99.90;;;;;;4239054;28;20213;-87
2021/12/06 05:34:33;;;;;;;6.63;5.93;;;15.20;99.90;;;;;;4238603;28;20214;-87
2021/12/06 05:36:35;;;;;;;6.33;5.73;;;15.10;99.90;;;;;;4229119;28;20205;-87
2021/12/06 05:38:38;;;;;;;6.53;5.70;;;15.20;99.90;;;;;;4229828;28;20267;-88
2021/12/06 05:40:40;;;;;;;6.13;5.55;;;15.20;99.90;;;;;;4231555;28;20238;-87
2021/12/06 05:42:43;;;;;;;7.00;6.30;;;15.20;99.90;;;;;;4232271;28;20210;-87
2021/12/06 05:44:46;;;;;;;6.35;5.70;;;15.20;99.90;;;;;;4232464;28;20202;-87
2021/12/06 05:46:48;;;;;;;7.18;6.47;;;15.20;99.90;;;;;;4231760;28;20263;-88
2021/12/06 05:48:51;;;;;;;7.17;6.33;;;15.20;99.90;;;;;;4231555;28;20263;-88
2021/12/06 05:50:55;;;;;;;6.70;6.10;;;15.10;99.90;;;;;;4231362;28;20237;-87
2021/12/06 05:52:58;;;;;;;8.07;7.28;;;15.20;99.90;;;;;;4231617;28;20219;-87
2021/12/06 05:55:00;;;;;;;7.85;7.05;;;15.10;99.90;;;;;;4231646;28;20654;-88
2021/12/06 05:57:05;;;;;;;7.68;6.90;;;14.90;99.90;;;;;;4233534;28;20213;-88
2021/12/06 05:59:08;;;;;;;6.70;6.10;;;14.90;99.90;;;;;;4234867;28;20660;-88
2021/12/06 06:01:11;;;;;;;7.30;6.30;;;14.90;99.90;;;;;;4235891;28;20186;-88
2021/12/06 06:03:14;;;;;;;6.57;5.90;;;15.10;99.90;;;;;;4234943;28;20281;-88
2021/12/06 06:05:18;;;;;;;7.03;6.33;;;15.10;99.90;;;;;;4234594;28;20342;-87
2021/12/06 06:07:22;;;;;;;6.97;6.38;;;15.20;99.90;;;;;;4234893;28;20610;-87
2021/12/06 06:09:24;;;;;;;6.83;6.20;;;15.30;99.90;;;;;;4234863;28;20218;-87
2021/12/06 06:11:28;;;;;;;7.80;7.00;;;15.30;99.90;;;;;;4234529;28;20237;-87
2021/12/06 06:13:30;;;;;;;7.82;7.13;;;15.40;99.90;;;;;;4235426;28;20254;-87
2021/12/06 06:15:33;;;;;;;7.53;6.82;;;15.40;99.90;;;;;;4235232;28;20611;-87
2021/12/06 06:17:40;;;;;;;7.93;7.13;;;15.50;99.90;;;;;;4235026;28;20525;-88
2021/12/06 06:19:46;;;;;;;7.65;6.80;;;15.50;99.90;;;;;;4235047;28;20209;-87
2021/12/06 06:21:49;;;;;;;7.55;6.85;;;15.50;99.90;;;;;;4235177;28;20190;-87
2021/12/06 06:23:53;;;;;;;7.97;7.07;;;15.50;99.90;;;;;;4234361;28;20271;-87
2021/12/06 06:25:56;;;;;;;8.48;7.57;;;15.50;99.90;;;;;;4234635;28;20259;-87
2021/12/06 06:27:59;;;;;;;7.95;6.88;;;15.60;99.90;;;;;;4234877;28;20194;-87
2021/12/06 06:30:02;;;;;;;7.50;6.70;;;15.60;99.90;;;;;;4234977;28;20235;-87
2021/12/06 06:32:05;;;;;;;8.93;7.25;;;15.60;99.90;;;;;;4234312;28;20322;-87
2021/12/06 06:34:08;;;;;;;8.07;7.28;;;15.70;99.90;;;;;;4234020;28;20205;-87
2021/12/06 06:36:11;;;;;;;8.53;7.33;;;15.70;99.90;;;;;;4234502;28;20206;-88
2021/12/06 06:38:13;;;;;;;10.10;7.68;;;15.70;99.90;;;;;;4234500;28;20210;-87
2021/12/06 06:40:18;;;;;;;8.07;7.28;;;15.70;99.90;;;;;;4234685;28;20275;-88
2021/12/06 06:42:23;;;;;;;7.97;7.15;;;15.70;99.90;;;;;;4234495;28;20243;-87
2021/12/06 06:44:25;;;;;;;8.82;7.50;;;15.70;99.90;;;;;;4235117;28;20725;-87
2021/12/06 06:46:28;;;;;;;8.63;7.40;;;15.70;99.90;;;;;;4234440;28;20259;-87
2021/12/06 06:48:31;;;;;;;8.23;7.43;;;15.80;99.90;;;;;;4234574;28;20190;-87
2021/12/06 06:50:34;;;;;;;8.43;7.50;;;15.80;99.90;;;;;;4234019;28;20295;-87
2021/12/06 06:52:36;;;;;;;10.00;7.95;;;15.80;99.90;;;;;;4234838;28;20266;-87
2021/12/06 06:54:39;;;;;;;9.35;7.78;;;15.80;99.90;;;;;;4234476;28;20210;-87
2021/12/06 06:56:43;;;;;;;10.02;8.07;;;15.80;99.90;;;;;;4234154;28;20214;-87
2021/12/06 06:58:46;;;;;;;8.65;7.57;;;15.80;99.90;;;;;;4234225;28;20259;-87
2021/12/06 07:00:48;;;;;;;8.47;7.10;;;15.80;99.90;;;;;;4234129;28;20275;-87
2021/12/06 07:02:51;;;;;;;9.23;7.35;;;15.90;99.90;;;;;;4234174;28;20611;-87
2021/12/06 07:04:53;;;;;;;9.55;8.30;;;15.90;99.90;;;;;;4233992;28;20214;-87
2021/12/06 07:06:56;;;;;;;9.77;8.53;;;15.90;99.90;;;;;;4234093;28;20255;-87
2021/12/06 07:08:58;;;;;;;9.27;7.57;;;15.90;99.90;;;;;;4233260;28;20243;-87
2021/12/06 07:11:05;;;;;;;9.25;8.35;;;16.00;99.90;;;;;;4234694;28;20218;-87
2021/12/06 07:13:11;;;;;;;8.88;7.78;;;16.00;99.90;;;;;;4233999;28;20223;-87
2021/12/06 07:15:18;;;;;;;9.15;7.93;;;16.00;99.90;;;;;;4234526;28;20190;-87
2021/12/06 07:17:20;;;;;;;11.05;8.02;;;16.00;99.90;;;;;;4233961;28;20213;-87
2021/12/06 07:19:22;;;;;;;8.65;7.68;;;16.00;99.90;;;;;;4234005;28;20243;-86
2021/12/06 07:21:25;;;;;;;9.43;8.27;;;16.00;99.90;;;;;;4234373;28;20209;-87
2021/12/06 07:23:28;;;;;;;10.00;8.68;;;16.00;99.90;;;;;;4234168;28;20255;-87
2021/12/06 07:25:31;;;;;;;9.82;7.95;;;16.10;99.90;;;;;;4227880;27;20209;-87
2021/12/06 07:27:34;;;;;;;11.10;8.57;;;16.00;99.90;;;;;;4231113;28;20641;-87
2021/12/06 07:29:40;;;;;;;9.10;8.10;;;16.00;99.90;;;;;;4232764;28;20209;-87
2021/12/06 07:31:43;;;;;;;10.00;8.80;;;16.10;99.90;;;;;;4234313;28;20599;-87
2021/12/06 07:33:47;;;;;;;9.98;7.78;;;16.10;99.90;;;;;;4233817;28;20202;-87
2021/12/06 07:35:49;;;;;;;9.73;8.60;;;16.10;99.90;;;;;;4233328;28;20263;-87
2021/12/06 07:37:52;;;;;;;9.23;8.25;;;16.10;99.90;;;;;;4233299;28;20206;-87
2021/12/06 07:39:54;;;;;;;9.98;8.63;;;16.10;99.90;;;;;;4232702;28;20233;-87
2021/12/06 07:42:02;;;;;;;11.77;9.47;;;16.20;99.90;;;;;;4233335;28;20258;-87
2021/12/06 07:44:05;;;;;;;11.70;8.82;;;16.20;99.90;;;;;;4230210;28;20217;-87
2021/12/06 07:46:10;;;;;;;12.23;9.57;;;16.20;99.90;;;;;;4233409;28;20210;-87
2021/12/06 07:48:14;;;;;;;10.35;8.98;;;16.20;99.90;;;;;;4233343;28;20210;-87
2021/12/06 07:50:20;;;;;;;12.00;9.27;;;16.20;99.90;;;;;;4233273;28;20214;-87
2021/12/06 07:52:22;;;;;;;12.27;9.43;;;16.20;99.90;;;;;;4233347;28;20728;-87
2021/12/06 07:54:25;;;;;;;11.80;9.27;;;16.20;99.90;;;;;;4233231;28;20255;-87
2021/12/06 07:56:27;;;;;;;10.95;9.02;;;16.20;99.90;;;;;;4233485;28;20692;-87
2021/12/06 07:58:30;;;;;;;11.55;9.85;;;16.30;99.90;;;;;;4228228;28;20635;-86
2021/12/06 08:00:34;;;;;;;12.90;8.90;;;16.10;99.90;;;;;;4217234;28;20187;-85
2021/12/06 08:02:38;;;;;;;13.95;9.82;;;16.00;99.90;;;;;;4216930;28;20210;-86
2021/12/06 08:04:40;;;;;;;18.00;10.07;;;16.10;99.90;;;;;;4229389;28;20615;-90
2021/12/06 08:06:43;;;;;;;17.03;10.50;;;16.10;99.90;;;;;;4214862;27;20295;-86
2021/12/06 08:08:46;;;;;;;18.67;11.13;;;16.30;99.90;;;;;;4215264;27;20218;-88
2021/12/06 08:10:52;;;;;;;19.05;11.10;;;16.40;99.90;;;;;;4211699;28;20260;-88
2021/12/06 08:12:55;;;;;;;14.05;10.80;;;16.70;99.90;;;;;;4208370;28;20233;-83
2021/12/06 08:14:57;;;;;;;14.30;10.63;;;16.70;99.90;;;;;;4209268;28;20211;-85
2021/12/06 08:17:00;;;;;;;14.80;8.77;;;16.90;99.90;;;;;;4211524;28;20283;-80
2021/12/06 08:19:03;;;;;;;12.50;9.40;;;17.10;99.90;;;;;;4208979;28;20226;-80
2021/12/06 08:21:07;;;;;;;13.13;9.32;;;17.30;99.90;;;;;;4209810;28;20272;-81
2021/12/06 08:23:09;;;;;;;13.32;10.25;;;17.30;99.90;;;;;;4211991;28;20968;-80
2021/12/06 08:25:13;;;;;;;10.82;8.70;;;17.40;99.90;;;;;;4210722;28;20218;-82
2021/12/06 08:27:16;;;;;;;12.25;8.38;;;17.50;99.90;;;;;;4212017;28;20215;-79
2021/12/06 08:29:19;;;;;;;13.73;9.40;;;17.60;99.90;;;;;;4211040;28;20651;-75
2021/12/06 08:31:22;;;;;;;11.98;8.43;;;17.70;99.90;;;;;;4211023;28;20218;-84
2021/12/06 08:33:30;;;;;;;10.32;9.10;;;17.80;99.90;;;;;;4204975;28;20263;-78
2021/12/06 08:35:35;;;;;;;12.90;9.05;;;17.80;99.90;;;;;;4203681;28;20218;-81
2021/12/06 08:37:38;;;;;;;14.02;9.70;;;17.80;99.90;;;;;;4209457;28;20218;-87
2021/12/06 08:39:41;;;;;;;12.20;8.88;;;17.80;99.90;;;;;;4206661;28;20238;-79
2021/12/06 08:41:44;;;;;;;10.65;8.15;;;17.90;99.90;;;;;;4204815;28;20260;-80
2021/12/06 08:43:47;;;;;;;12.82;9.52;;;18.00;99.90;;;;;;4209132;28;20215;-78
2021/12/06 08:45:56;;;;;;;22.67;9.60;;;18.00;99.90;;;;;;4205432;28;20670;-81
2021/12/06 08:47:59;;;;;;;15.88;8.98;;;18.00;99.90;;;;;;4203737;28;20217;-76
2021/12/06 08:50:01;;;;;;;18.17;9.23;;;17.90;99.90;;;;;;4204745;28;20286;-77
2021/12/06 08:52:06;;;;;;;17.20;9.25;;;17.90;99.90;;;;;;4208280;28;20235;-76
2021/12/06 08:54:10;;;;;;;15.98;9.32;;;18.10;99.90;;;;;;4202325;28;20210;-77
2021/12/06 08:56:13;;;;;;;14.88;8.13;;;18.20;99.90;;;;;;4201389;28;20276;-77
2021/12/06 08:58:15;;;;;;;13.98;8.73;;;18.30;99.90;;;;;;4204779;28;20552;-77
2021/12/06 09:00:22;;;;;;;17.90;9.13;;;18.30;99.90;;;;;;4200358;28;20279;-76
2021/12/06 09:02:24;;;;;;;15.25;9.45;;;18.30;99.90;;;;;;4206648;28;20223;-75
2021/12/06 09:04:31;;;;;;;15.43;8.65;;;18.40;99.90;;;;;;4203714;28;20227;-75
2021/12/06 09:06:33;;;;;;;16.92;8.90;;;18.40;99.90;;;;;;4202666;28;20674;-75
2021/12/06 09:08:39;;;;;;;16.92;9.30;;;18.30;99.90;;;;;;4207791;28;20226;-78
2021/12/06 09:10:41;;;;;;;14.32;9.50;;;18.40;99.90;;;;;;4204877;28;20222;-79
2021/12/06 09:12:45;;;;;;;33.28;10.45;;;18.40;99.90;;;;;;4205737;28;20264;-78
2021/12/06 09:14:48;;;;;;;33.05;10.93;;;18.40;99.90;;;;;;4207060;28;20214;-77
2021/12/06 09:16:53;;;;;;;19.63;9.05;;;18.40;99.90;;;;;;4204983;28;20687;-77
2021/12/06 09:18:55;;;;;;;28.33;9.77;;;18.30;99.90;;;;;;4206361;28;20211;-77
2021/12/06 09:20:58;;;;;;;19.77;10.18;;;18.40;99.90;;;;;;4207377;28;20641;-79
2021/12/06 09:23:01;;;;;;;17.33;10.75;;;18.30;99.90;;;;;;4206503;28;20276;-78
2021/12/06 09:25:08;;;;;;;21.85;11.90;;;18.20;99.90;;;;;;4209689;28;20259;-79
2021/12/06 09:27:10;;;;;;;19.33;9.57;;;18.30;99.90;;;;;;4203877;28;20279;-78
2021/12/06 09:29:13;;;;;;;19.63;10.70;;;18.30;99.90;;;;;;4207433;28;20215;-78
2021/12/06 09:31:18;;;;;;;21.45;10.80;;;18.30;99.90;;;;;;4205598;28;20236;-77
2021/12/06 09:33:22;;;;;;;16.42;9.32;;;18.30;99.90;;;;;;4206153;28;20707;-77
2021/12/06 09:35:27;;;;;;;15.38;9.55;;;18.30;99.90;;;;;;4208740;28;20655;-80
2021/12/06 09:37:30;;;;;;;16.35;9.10;;;18.40;99.90;;;;;;4210424;28;20218;-76
2021/12/06 09:39:33;;;;;;;15.07;8.95;;;18.30;99.90;;;;;;4208945;28;20238;-78
2021/12/06 09:41:38;;;;;;;19.23;8.98;;;18.40;99.90;;;;;;4206687;28;20231;-77
2021/12/06 09:43:42;;;;;;;16.13;9.75;;;18.40;99.90;;;;;;4206263;28;20271;-78
2021/12/06 09:45:46;;;;;;;16.15;9.35;;;18.40;99.90;;;;;;4204113;28;20732;-77
2021/12/06 09:47:52;;;;;;;16.98;9.48;;;18.40;99.90;;;;;;4208837;28;20283;-78
2021/12/06 09:49:54;;;;;;;11.73;8.18;;;18.50;99.90;;;;;;4207623;28;20674;-77
2021/12/06 09:52:01;;;;;;;19.02;8.75;;;18.50;99.90;;;;;;4204572;28;20248;-78
2021/12/06 09:54:03;;;;;;;19.92;10.32;;;18.50;99.90;;;;;;4208550;28;20222;-73
2021/12/06 09:56:11;;;;;;;13.18;9.77;;;18.20;99.90;;;;;;4208453;28;20619;-78
2021/12/06 09:58:15;;;;;;;12.55;9.35;;;17.90;99.90;;;;;;4204374;28;20287;-78
2021/12/06 10:00:21;;;;;;;15.38;9.40;;;18.00;99.90;;;;;;4207707;28;20413;-79
2021/12/06 10:02:23;;;;;;;22.38;10.02;;;18.20;99.90;;;;;;4206990;28;20214;-76
2021/12/06 10:04:28;;;;;;;18.08;8.93;;;18.40;99.90;;;;;;4207623;28;20210;-77
2021/12/06 10:06:31;;;;;;;15.77;8.35;;;18.50;99.90;;;;;;4205535;28;20218;-77
2021/12/06 10:08:37;;;;;;;15.10;7.38;;;18.50;99.90;;;;;;4203753;28;20279;-78
2021/12/06 10:10:40;;;;;;;13.88;7.47;;;18.50;99.90;;;;;;4206590;28;20307;-77
2021/12/06 10:12:45;;;;;;;11.35;7.07;;;18.50;99.90;;;;;;4206778;28;20238;-77
2021/12/06 10:14:50;;;;;;;13.23;7.80;;;18.60;99.90;;;;;;4206088;28;20311;-78
2021/12/06 10:16:52;;;;;;;15.32;7.50;;;18.60;99.90;;;;;;4209287;28;20239;-79
2021/12/06 10:18:55;;;;;;;14.77;7.97;;;18.60;99.90;;;;;;4207422;28;20260;-77
2021/12/06 10:20:57;;;;;;;14.38;7.72;;;18.60;99.90;;;;;;4203934;28;20324;-78
2021/12/06 10:23:01;;;;;;;10.73;6.85;;;18.60;99.90;;;;;;4206105;28;20624;-78
2021/12/06 10:25:05;;;;;;;9.43;6.75;;;18.70;99.90;;;;;;4205914;28;20218;-78
2021/12/06 10:27:11;;;;;;;10.85;6.85;;;18.90;99.90;;;;;;4209555;28;20280;-79
2021/12/06 10:29:20;;;;;;;12.20;6.70;;;19.00;99.90;;;;;;4209331;28;20207;-78
2021/12/06 10:31:26;;;;;;;10.82;6.80;;;19.00;99.90;;;;;;4204123;28;20223;-79
2021/12/06 10:33:31;;;;;;;9.45;7.13;;;19.10;99.90;;;;;;4201739;28;20280;-76
2021/12/06 10:35:33;;;;;;;9.70;6.70;;;19.20;99.90;;;;;;4204874;28;20218;-77
2021/12/06 10:37:39;;;;;;;11.02;6.85;;;19.20;99.90;;;;;;4198618;28;20216;-78
2021/12/06 10:39:44;;;;;;;8.50;6.38;;;19.30;99.90;;;;;;4204154;28;20234;-77
2021/12/06 10:41:49;;;;;;;10.25;6.70;;;19.40;99.90;;;;;;4204221;28;20207;-78
2021/12/06 10:43:54;;;;;;;9.38;6.75;;;19.40;99.90;;;;;;4213024;28;20217;-78
2021/12/06 10:45:58;;;;;;;9.63;7.05;;;19.40;99.90;;;;;;4210856;28;20548;-78
2021/12/06 10:48:11;;;;;;;11.32;6.90;;;19.40;99.90;;;;;;4210435;28;20617;-77
2021/12/06 10:50:17;;;;;;;9.90;6.50;;;19.40;99.90;;;;;;4206061;28;20271;-78
2021/12/06 10:52:26;;;;;;;10.38;6.78;;;19.30;99.90;;;;;;4210585;28;20230;-78
2021/12/06 10:54:35;;;;;;;10.98;6.43;;;19.30;99.90;;;;;;4213187;28;20256;-78
2021/12/06 10:56:42;;;;;;;9.20;6.10;;;19.40;99.90;;;;;;4208652;28;20713;-79